sensor_id;sensor_type;location;lat;lon;timestamp;temperature;humidity
46309;DHT22;32037;50.820;6.494;2023-02-28T00:01:27;6.00;99.90
46309;DHT22;32037;50.820;6.494;2023-02-28T00:03:58;5.90;99.90
46309;DHT22;32037;50.820;6.494;2023-02-28T00:06:27;5.90;99.90
46309;DHT22;32037;50.820;6.494;2023-02-28T00:08:55;5.90;99.90
46309;DHT22;32037;50.820;6.494;2023-02-28T00:11:23;6.00;99.90
46309;DHT22;32037;50.820;6.494;2023-02-28T00:13:52;5.90;99.90
46309;DHT22;32037;50.820;6.494;2023-02-28T00:16:22;5.90;99.90
46309;DHT22;32037;50.820;6.494;2023-02-28T00:18:50;5.90;99.90
46309;DHT22;32037;50.820;6.494;2023-02-28T00:21:20;5.90;99.90
46309;DHT22;32037;50.820;6.494;2023-02-28T00:23:49;5.90;99.90
46309;DHT22;32037;50.820;6.494;2023-02-28T00:26:17;5.90;99.90
46309;DHT22;32037;50.820;6.494;2023-02-28T00:28:48;5.90;99.90
46309;DHT22;32037;50.820;6.494;2023-02-28T00:31:17;5.90;99.90
46309;DHT22;32037;50.820;6.494;2023-02-28T00:33:47;5.90;99.90
46309;DHT22;32037;50.820;6.494;2023-02-28T00:36:16;5.90;99.90
46309;DHT22;32037;50.820;6.494;2023-02-28T00:38:45;5.90;99.90
46309;DHT22;32037;50.820;6.494;2023-02-28T00:41:14;5.90;99.90
46309;DHT22;32037;50.820;6.494;2023-02-28T00:43:42;5.90;99.90
46309;DHT22;32037;50.820;6.494;2023-02-28T00:46:10;5.90;99.90
46309;DHT22;32037;50.820;6.494;2023-02-28T00:48:39;5.90;99.90
46309;DHT22;32037;50.820;6.494;2023-02-28T00:51:08;5.90;99.90
46309;DHT22;32037;50.820;6.494;2023-02-28T00:53:36;5.90;99.90
46309;DHT22;32037;50.820;6.494;2023-02-28T00:56:06;5.90;99.90
46309;DHT22;32037;50.820;6.494;2023-02-28T00:58:35;5.90;99.90
46309;DHT22;32037;50.820;6.494;2023-02-28T01:01:03;5.90;99.90
46309;DHT22;32037;50.820;6.494;2023-02-28T01:03:32;5.90;99.90
46309;DHT22;32037;50.820;6.494;2023-02-28T01:06:01;5.90;99.90
46309;DHT22;32037;50.820;6.494;2023-02-28T01:08:29;5.90;99.90
46309;DHT22;32037;50.820;6.494;2023-02-28T01:10:57;5.90;99.90
46309;DHT22;32037;50.820;6.494;2023-02-28T01:13:27;5.90;99.90
46309;DHT22;32037;50.820;6.494;2023-02-28T01:15:57;5.90;99.90
46309;DHT22;32037;50.820;6.494;2023-02-28T01:18:26;5.90;99.90
46309;DHT22;32037;50.820;6.494;2023-02-28T01:20:55;5.90;99.90
46309;DHT22;32037;50.820;6.494;2023-02-28T01:23:24;5.90;99.90
46309;DHT22;32037;50.820;6.494;2023-02-28T01:25:52;5.90;99.90
46309;DHT22;32037;50.820;6.494;2023-02-28T01:28:21;5.90;99.90
46309;DHT22;32037;50.820;6.494;2023-02-28T01:30:51;5.90;99.90
46309;DHT22;32037;50.820;6.494;2023-02-28T01:33:19;5.90;99.90
46309;DHT22;32037;50.820;6.494;2023-02-28T01:35:48;5.90;99.90
46309;DHT22;32037;50.820;6.494;2023-02-28T01:38:16;5.90;99.90
46309;DHT22;32037;50.820;6.494;2023-02-28T01:40:49;5.90;99.90
46309;DHT22;32037;50.820;6.494;2023-02-28T01:43:21;5.90;99.90
46309;DHT22;32037;50.820;6.494;2023-02-28T01:45:51;5.80;99.90
46309;DHT22;32037;50.820;6.494;2023-02-28T01:48:23;5.80;99.90
46309;DHT22;32037;50.820;6.494;2023-02-28T01:50:55;5.90;99.90
46309;DHT22;32037;50.820;6.494;2023-02-28T01:53:26;5.80;99.90
46309;DHT22;32037;50.820;6.494;2023-02-28T01:55:58;5.80;99.90
46309;DHT22;32037;50.820;6.494;2023-02-28T01:58:27;5.80;99.90
46309;DHT22;32037;50.820;6.494;2023-02-28T02:00:57;5.80;99.90
46309;DHT22;32037;50.820;6.494;2023-02-28T02:03:26;5.80;99.90
46309;DHT22;32037;50.820;6.494;2023-02-28T02:05:54;5.80;99.90
46309;DHT22;32037;50.820;6.494;2023-02-28T02:08:25;5.80;99.90
46309;DHT22;32037;50.820;6.494;2023-02-28T02:10:55;5.80;99.90
46309;DHT22;32037;50.820;6.494;2023-02-28T02:13:37;5.80;99.90
46309;DHT22;32037;50.820;6.494;2023-02-28T02:16:26;5.80;99.90
46309;DHT22;32037;50.820;6.494;2023-02-28T02:19:02;5.80;99.90
46309;DHT22;32037;50.820;6.494;2023-02-28T02:22:01;5.80;99.90
46309;DHT22;32037;50.820;6.494;2023-02-28T02:25:16;5.80;99.90
46309;DHT22;32037;50.820;6.494;2023-02-28T02:28:13;5.80;99.90
46309;DHT22;32037;50.820;6.494;2023-02-28T02:31:06;5.80;99.90
46309;DHT22;32037;50.820;6.494;2023-02-28T02:36:49;5.80;99.90
46309;DHT22;32037;50.820;6.494;2023-02-28T02:39:25;5.80;99.90
46309;DHT22;32037;50.820;6.494;2023-02-28T02:42:00;5.80;99.90
46309;DHT22;32037;50.820;6.494;2023-02-28T02:44:38;5.80;99.90
46309;DHT22;32037;50.820;6.494;2023-02-28T02:47:10;5.70;99.90
46309;DHT22;32037;50.820;6.494;2023-02-28T02:49:42;5.80;99.90
46309;DHT22;32037;50.820;6.494;2023-02-28T02:52:15;5.80;99.90
46309;DHT22;32037;50.820;6.494;2023-02-28T02:54:46;5.70;99.90
46309;DHT22;32037;50.820;6.494;2023-02-28T02:57:21;5.70;99.90
46309;DHT22;32037;50.820;6.494;2023-02-28T02:59:52;5.70;99.90
46309;DHT22;32037;50.820;6.494;2023-02-28T03:02:22;5.70;99.90
46309;DHT22;32037;50.820;6.494;2023-02-28T03:04:53;5.80;99.90
46309;DHT22;32037;50.820;6.494;2023-02-28T03:07:29;5.70;99.90
46309;DHT22;32037;50.820;6.494;2023-02-28T03:09:57;5.70;99.90
46309;DHT22;32037;50.820;6.494;2023-02-28T03:12:32;5.70;99.90
46309;DHT22;32037;50.820;6.494;2023-02-28T03:15:08;5.70;99.90
46309;DHT22;32037;50.820;6.494;2023-02-28T03:17:56;5.70;99.90
46309;DHT22;32037;50.820;6.494;2023-02-28T03:20:36;5.70;99.90
46309;DHT22;32037;50.820;6.494;2023-02-28T03:23:15;5.70;99.90
46309;DHT22;32037;50.820;6.494;2023-02-28T03:25:54;5.70;99.90
46309;DHT22;32037;50.820;6.494;2023-02-28T03:28:31;5.70;99.90
46309;DHT22;32037;50.820;6.494;2023-02-28T03:31:06;5.70;99.90
46309;DHT22;32037;50.820;6.494;2023-02-28T03:33:39;5.70;99.90
46309;DHT22;32037;50.820;6.494;2023-02-28T03:36:12;5.70;99.90
46309;DHT22;32037;50.820;6.494;2023-02-28T03:38:46;5.70;99.90
46309;DHT22;32037;50.820;6.494;2023-02-28T03:41:17;5.70;99.90
46309;DHT22;32037;50.820;6.494;2023-02-28T03:43:52;5.70;99.90
46309;DHT22;32037;50.820;6.494;2023-02-28T03:46:24;5.70;99.90
46309;DHT22;32037;50.820;6.494;2023-02-28T03:48:56;5.70;99.90
46309;DHT22;32037;50.820;6.494;2023-02-28T03:51:25;5.70;99.90
46309;DHT22;32037;50.820;6.494;2023-02-28T03:54:01;5.70;99.90
46309;DHT22;32037;50.820;6.494;2023-02-28T03:56:33;5.70;99.90
46309;DHT22;32037;50.820;6.494;2023-02-28T03:59:06;5.70;99.90
46309;DHT22;32037;50.820;6.494;2023-02-28T04:01:37;5.70;99.90
46309;DHT22;32037;50.820;6.494;2023-02-28T04:04:09;5.70;99.90
46309;DHT22;32037;50.820;6.494;2023-02-28T04:06:38;5.70;99.90
46309;DHT22;32037;50.820;6.494;2023-02-28T04:09:11;5.70;99.90
46309;DHT22;32037;50.820;6.494;2023-02-28T04:11:40;5.60;99.90
46309;DHT22;32037;50.820;6.494;2023-02-28T04:14:10;5.60;99.90
46309;DHT22;32037;50.820;6.494;2023-02-28T04:16:40;5.60;99.90
46309;DHT22;32037;50.820;6.494;2023-02-28T04:19:10;5.60;99.90
46309;DHT22;32037;50.820;6.494;2023-02-28T04:21:41;5.70;99.90
46309;DHT22;32037;50.820;6.494;2023-02-28T04:24:12;5.70;99.90
46309;DHT22;32037;50.820;6.494;2023-02-28T04:26:46;5.60;99.90
46309;DHT22;32037;50.820;6.494;2023-02-28T04:29:19;5.60;99.90
46309;DHT22;32037;50.820;6.494;2023-02-28T04:31:48;5.60;99.90
46309;DHT22;32037;50.820;6.494;2023-02-28T04:34:16;5.60;99.90
46309;DHT22;32037;50.820;6.494;2023-02-28T04:36:46;5.60;99.90
46309;DHT22;32037;50.820;6.494;2023-02-28T04:39:35;5.60;99.90
46309;DHT22;32037;50.820;6.494;2023-02-28T04:42:04;5.60;99.90
46309;DHT22;32037;50.820;6.494;2023-02-28T04:44:32;5.60;99.90
46309;DHT22;32037;50.820;6.494;2023-02-28T04:47:00;5.60;99.90
46309;DHT22;32037;50.820;6.494;2023-02-28T04:49:29;5.60;99.90
46309;DHT22;32037;50.820;6.494;2023-02-28T04:51:57;5.60;99.90
46309;DHT22;32037;50.820;6.494;2023-02-28T04:54:25;5.60;99.90
46309;DHT22;32037;50.820;6.494;2023-02-28T04:56:56;5.60;99.90
46309;DHT22;32037;50.820;6.494;2023-02-28T04:59:25;5.60;99.90
46309;DHT22;32037;50.820;6.494;2023-02-28T05:01:53;5.50;99.90
46309;DHT22;32037;50.820;6.494;2023-02-28T05:04:21;5.50;99.90
46309;DHT22;32037;50.820;6.494;2023-02-28T05:06:50;5.50;99.90
46309;DHT22;32037;50.820;6.494;2023-02-28T05:09:18;5.60;99.90
46309;DHT22;32037;50.820;6.494;2023-02-28T05:11:46;5.50;99.90
46309;DHT22;32037;50.820;6.494;2023-02-28T05:14:16;5.50;99.90
46309;DHT22;32037;50.820;6.494;2023-02-28T05:16:45;5.50;99.90
46309;DHT22;32037;50.820;6.494;2023-02-28T05:19:13;5.50;99.90
46309;DHT22;32037;50.820;6.494;2023-02-28T05:21:49;5.50;99.90
46309;DHT22;32037;50.820;6.494;2023-02-28T05:24:18;5.50;99.90
46309;DHT22;32037;50.820;6.494;2023-02-28T05:26:51;5.50;99.90
46309;DHT22;32037;50.820;6.494;2023-02-28T05:29:22;5.50;99.90
46309;DHT22;32037;50.820;6.494;2023-02-28T05:31:50;5.50;99.90
46309;DHT22;32037;50.820;6.494;2023-02-28T05:34:19;5.50;99.90
46309;DHT22;32037;50.820;6.494;2023-02-28T05:36:47;5.50;99.90
46309;DHT22;32037;50.820;6.494;2023-02-28T05:39:16;5.50;99.90
46309;DHT22;32037;50.820;6.494;2023-02-28T05:41:44;5.50;99.90
46309;DHT22;32037;50.820;6.494;2023-02-28T05:44:12;5.50;99.90
46309;DHT22;32037;50.820;6.494;2023-02-28T05:46:42;5.50;99.90
46309;DHT22;32037;50.820;6.494;2023-02-28T05:49:10;5.50;99.90
46309;DHT22;32037;50.820;6.494;2023-02-28T05:51:39;5.50;99.90
46309;DHT22;32037;50.820;6.494;2023-02-28T05:54:07;5.50;99.90
46309;DHT22;32037;50.820;6.494;2023-02-28T05:56:37;5.50;99.90
46309;DHT22;32037;50.820;6.494;2023-02-28T05:59:06;5.50;99.90
46309;DHT22;32037;50.820;6.494;2023-02-28T06:01:36;5.50;99.90
46309;DHT22;32037;50.820;6.494;2023-02-28T06:04:08;5.50;99.90
46309;DHT22;32037;50.820;6.494;2023-02-28T06:06:51;5.40;99.90
46309;DHT22;32037;50.820;6.494;2023-02-28T06:09:20;5.40;99.90
46309;DHT22;32037;50.820;6.494;2023-02-28T06:11:48;5.40;99.90
46309;DHT22;32037;50.820;6.494;2023-02-28T06:14:18;5.40;99.90
46309;DHT22;32037;50.820;6.494;2023-02-28T06:16:46;5.40;99.90
46309;DHT22;32037;50.820;6.494;2023-02-28T06:19:16;5.40;99.90
46309;DHT22;32037;50.820;6.494;2023-02-28T06:21:45;5.40;99.90
46309;DHT22;32037;50.820;6.494;2023-02-28T06:24:17;5.40;99.90
46309;DHT22;32037;50.820;6.494;2023-02-28T06:26:46;5.40;99.90
46309;DHT22;32037;50.820;6.494;2023-02-28T06:29:14;5.40;99.90
46309;DHT22;32037;50.820;6.494;2023-02-28T06:31:44;5.40;99.90
46309;DHT22;32037;50.820;6.494;2023-02-28T06:34:13;5.40;99.90
46309;DHT22;32037;50.820;6.494;2023-02-28T06:36:43;5.40;99.90
46309;DHT22;32037;50.820;6.494;2023-02-28T06:39:12;5.40;99.90
46309;DHT22;32037;50.820;6.494;2023-02-28T06:41:40;5.40;99.90
46309;DHT22;32037;50.820;6.494;2023-02-28T06:44:20;5.40;99.90
46309;DHT22;32037;50.820;6.494;2023-02-28T06:46:49;5.40;99.90
46309;DHT22;32037;50.820;6.494;2023-02-28T06:49:17;5.40;99.90
46309;DHT22;32037;50.820;6.494;2023-02-28T06:51:47;5.40;99.90
46309;DHT22;32037;50.820;6.494;2023-02-28T06:54:16;5.40;99.90
46309;DHT22;32037;50.820;6.494;2023-02-28T06:56:45;5.40;99.90
46309;DHT22;32037;50.820;6.494;2023-02-28T06:59:14;5.40;99.90
46309;DHT22;32037;50.820;6.494;2023-02-28T07:01:42;5.40;99.90
46309;DHT22;32037;50.820;6.494;2023-02-28T07:04:11;5.40;99.90
46309;DHT22;32037;50.820;6.494;2023-02-28T07:06:40;5.40;99.90
46309;DHT22;32037;50.820;6.494;2023-02-28T07:09:10;5.40;99.90
46309;DHT22;32037;50.820;6.494;2023-02-28T07:11:38;5.40;99.90
46309;DHT22;32037;50.820;6.494;2023-02-28T07:14:08;5.30;99.90
46309;DHT22;32037;50.820;6.494;2023-02-28T07:16:36;5.30;99.90
46309;DHT22;32037;50.820;6.494;2023-02-28T07:19:05;5.30;99.90
46309;DHT22;32037;50.820;6.494;2023-02-28T07:21:33;5.30;99.90
46309;DHT22;32037;50.820;6.494;2023-02-28T07:24:02;5.30;99.90
46309;DHT22;32037;50.820;6.494;2023-02-28T07:26:31;5.30;99.90
46309;DHT22;32037;50.820;6.494;2023-02-28T07:29:01;5.30;99.90
46309;DHT22;32037;50.820;6.494;2023-02-28T07:31:29;5.30;99.90
46309;DHT22;32037;50.820;6.494;2023-02-28T07:33:58;5.30;99.90
46309;DHT22;32037;50.820;6.494;2023-02-28T07:36:27;5.30;99.90
46309;DHT22;32037;50.820;6.494;2023-02-28T07:38:55;5.30;99.90
46309;DHT22;32037;50.820;6.494;2023-02-28T07:41:24;5.30;99.90
46309;DHT22;32037;50.820;6.494;2023-02-28T07:43:56;5.30;99.90
46309;DHT22;32037;50.820;6.494;2023-02-28T07:46:26;5.30;99.90
46309;DHT22;32037;50.820;6.494;2023-02-28T07:48:57;5.30;99.90
46309;DHT22;32037;50.820;6.494;2023-02-28T07:51:26;5.30;99.90
46309;DHT22;32037;50.820;6.494;2023-02-28T07:53:55;5.30;99.90
46309;DHT22;32037;50.820;6.494;2023-02-28T07:56:24;5.30;99.90
46309;DHT22;32037;50.820;6.494;2023-02-28T07:58:53;5.30;99.90
46309;DHT22;32037;50.820;6.494;2023-02-28T08:01:23;5.30;99.90
46309;DHT22;32037;50.820;6.494;2023-02-28T08:03:51;5.30;99.90
46309;DHT22;32037;50.820;6.494;2023-02-28T08:06:23;5.30;99.90
46309;DHT22;32037;50.820;6.494;2023-02-28T08:08:53;5.30;99.90
46309;DHT22;32037;50.820;6.494;2023-02-28T08:11:23;5.20;99.90
46309;DHT22;32037;50.820;6.494;2023-02-28T08:13:51;5.20;99.90
46309;DHT22;32037;50.820;6.494;2023-02-28T08:16:20;5.20;99.90
46309;DHT22;32037;50.820;6.494;2023-02-28T08:18:51;5.30;99.90
46309;DHT22;32037;50.820;6.494;2023-02-28T08:21:20;5.30;99.90
46309;DHT22;32037;50.820;6.494;2023-02-28T08:23:50;5.30;99.90
46309;DHT22;32037;50.820;6.494;2023-02-28T08:26:19;5.30;99.90
46309;DHT22;32037;50.820;6.494;2023-02-28T08:28:48;5.30;99.90
46309;DHT22;32037;50.820;6.494;2023-02-28T08:31:17;5.30;99.90
46309;DHT22;32037;50.820;6.494;2023-02-28T08:33:46;5.30;99.90
46309;DHT22;32037;50.820;6.494;2023-02-28T08:36:19;5.30;99.90
46309;DHT22;32037;50.820;6.494;2023-02-28T08:38:48;5.30;99.90
46309;DHT22;32037;50.820;6.494;2023-02-28T08:41:16;5.30;99.90
46309;DHT22;32037;50.820;6.494;2023-02-28T08:43:45;5.40;99.90
46309;DHT22;32037;50.820;6.494;2023-02-28T08:46:14;5.40;99.90
46309;DHT22;32037;50.820;6.494;2023-02-28T08:48:42;5.40;99.90
46309;DHT22;32037;50.820;6.494;2023-02-28T08:51:12;5.40;99.90
46309;DHT22;32037;50.820;6.494;2023-02-28T08:53:42;5.40;99.90
46309;DHT22;32037;50.820;6.494;2023-02-28T08:56:12;5.40;99.90
46309;DHT22;32037;50.820;6.494;2023-02-28T08:58:41;5.40;99.90
46309;DHT22;32037;50.820;6.494;2023-02-28T09:01:12;5.40;99.90
46309;DHT22;32037;50.820;6.494;2023-02-28T09:03:41;5.40;99.90
46309;DHT22;32037;50.820;6.494;2023-02-28T09:06:10;5.40;99.90
46309;DHT22;32037;50.820;6.494;2023-02-28T09:08:39;5.40;99.90
46309;DHT22;32037;50.820;6.494;2023-02-28T09:11:09;5.40;99.90
46309;DHT22;32037;50.820;6.494;2023-02-28T09:13:38;5.40;99.90
46309;DHT22;32037;50.820;6.494;2023-02-28T09:16:10;5.40;99.90
46309;DHT22;32037;50.820;6.494;2023-02-28T09:18:39;5.40;99.90
46309;DHT22;32037;50.820;6.494;2023-02-28T09:21:09;5.40;99.90
46309;DHT22;32037;50.820;6.494;2023-02-28T09:23:39;5.40;99.90
46309;DHT22;32037;50.820;6.494;2023-02-28T09:26:11;5.40;99.90
46309;DHT22;32037;50.820;6.494;2023-02-28T09:28:41;5.40;99.90
46309;DHT22;32037;50.820;6.494;2023-02-28T09:31:12;5.40;99.90
46309;DHT22;32037;50.820;6.494;2023-02-28T09:33:42;5.40;99.90
46309;DHT22;32037;50.820;6.494;2023-02-28T09:36:10;5.40;99.90
46309;DHT22;32037;50.820;6.494;2023-02-28T09:38:39;5.40;99.90
46309;DHT22;32037;50.820;6.494;2023-02-28T09:41:13;5.40;99.90
46309;DHT22;32037;50.820;6.494;2023-02-28T09:43:45;5.40;99.90
46309;DHT22;32037;50.820;6.494;2023-02-28T09:46:25;5.40;99.90
46309;DHT22;32037;50.820;6.494;2023-02-28T09:48:56;5.40;99.90
46309;DHT22;32037;50.820;6.494;2023-02-28T09:51:36;5.40;99.90
46309;DHT22;32037;50.820;6.494;2023-02-28T09:54:08;5.40;99.90
46309;DHT22;32037;50.820;6.494;2023-02-28T09:56:40;5.40;99.90
46309;DHT22;32037;50.820;6.494;2023-02-28T09:59:14;5.40;99.90
46309;DHT22;32037;50.820;6.494;2023-02-28T10:01:54;5.40;99.90
46309;DHT22;32037;50.820;6.494;2023-02-28T10:04:37;5.40;99.90
46309;DHT22;32037;50.820;6.494;2023-02-28T10:07:18;5.40;99.90
46309;DHT22;32037;50.820;6.494;2023-02-28T10:09:52;5.40;99.90
46309;DHT22;32037;50.820;6.494;2023-02-28T10:12:22;5.40;99.90
46309;DHT22;32037;50.820;6.494;2023-02-28T10:14:53;5.40;99.90
46309;DHT22;32037;50.820;6.494;2023-02-28T10:17:26;5.40;99.90
46309;DHT22;32037;50.820;6.494;2023-02-28T10:20:01;5.40;99.90
46309;DHT22;32037;50.820;6.494;2023-02-28T10:22:38;5.40;99.90
46309;DHT22;32037;50.820;6.494;2023-02-28T10:25:20;5.40;99.90
46309;DHT22;32037;50.820;6.494;2023-02-28T10:27:53;5.40;99.90
46309;DHT22;32037;50.820;6.494;2023-02-28T10:30:22;5.40;99.90
46309;DHT22;32037;50.820;6.494;2023-02-28T10:32:51;5.40;99.90
46309;DHT22;32037;50.820;6.494;2023-02-28T10:35:23;5.40;99.90
46309;DHT22;32037;50.820;6.494;2023-02-28T10:37:54;5.40;99.90
46309;DHT22;32037;50.820;6.494;2023-02-28T10:40:30;5.40;99.90
46309;DHT22;32037;50.820;6.494;2023-02-28T10:43:02;5.40;99.90
46309;DHT22;32037;50.820;6.494;2023-02-28T10:45:32;5.40;99.90
46309;DHT22;32037;50.820;6.494;2023-02-28T10:48:06;5.40;99.90
46309;DHT22;32037;50.820;6.494;2023-02-28T10:50:39;5.40;99.90
46309;DHT22;32037;50.820;6.494;2023-02-28T10:53:25;5.40;99.90
46309;DHT22;32037;50.820;6.494;2023-02-28T10:55:58;5.40;99.90
46309;DHT22;32037;50.820;6.494;2023-02-28T10:58:31;5.40;99.90
46309;DHT22;32037;50.820;6.494;2023-02-28T11:01:00;5.40;99.90
46309;DHT22;32037;50.820;6.494;2023-02-28T11:03:31;5.40;99.90
46309;DHT22;32037;50.820;6.494;2023-02-28T11:06:06;5.40;99.90
46309;DHT22;32037;50.820;6.494;2023-02-28T11:08:44;5.40;99.90
46309;DHT22;32037;50.820;6.494;2023-02-28T11:11:13;5.40;99.90
46309;DHT22;32037;50.820;6.494;2023-02-28T11:13:46;5.40;99.90
46309;DHT22;32037;50.820;6.494;2023-02-28T11:16:15;5.40;99.90
46309;DHT22;32037;50.820;6.494;2023-02-28T11:18:48;5.40;99.90
46309;DHT22;32037;50.820;6.494;2023-02-28T11:21:20;5.40;99.90
46309;DHT22;32037;50.820;6.494;2023-02-28T11:23:51;5.30;99.90
46309;DHT22;32037;50.820;6.494;2023-02-28T11:26:36;5.40;99.90
46309;DHT22;32037;50.820;6.494;2023-02-28T11:29:18;5.30;99.90
46309;DHT22;32037;50.820;6.494;2023-02-28T11:32:02;5.30;99.90
46309;DHT22;32037;50.820;6.494;2023-02-28T11:34:32;5.30;99.90
46309;DHT22;32037;50.820;6.494;2023-02-28T11:37:02;5.40;99.90
46309;DHT22;32037;50.820;6.494;2023-02-28T11:39:32;5.40;99.90
46309;DHT22;32037;50.820;6.494;2023-02-28T11:42:41;5.30;99.90
46309;DHT22;32037;50.820;6.494;2023-02-28T11:45:19;5.30;99.90
46309;DHT22;32037;50.820;6.494;2023-02-28T11:47:58;5.30;99.90
46309;DHT22;32037;50.820;6.494;2023-02-28T11:50:45;5.30;99.90
46309;DHT22;32037;50.820;6.494;2023-02-28T11:53:21;5.30;99.90
46309;DHT22;32037;50.820;6.494;2023-02-28T11:55:57;5.30;99.90
46309;DHT22;32037;50.820;6.494;2023-02-28T11:58:44;5.30;99.90
46309;DHT22;32037;50.820;6.494;2023-02-28T12:01:28;5.30;99.90
46309;DHT22;32037;50.820;6.494;2023-02-28T12:04:11;5.30;99.90
46309;DHT22;32037;50.820;6.494;2023-02-28T12:06:48;5.30;99.90
46309;DHT22;32037;50.820;6.494;2023-02-28T12:09:34;5.30;99.90
46309;DHT22;32037;50.820;6.494;2023-02-28T12:12:12;5.30;99.90
46309;DHT22;32037;50.820;6.494;2023-02-28T12:15:05;5.30;99.90
46309;DHT22;32037;50.820;6.494;2023-02-28T12:17:55;5.30;99.90
46309;DHT22;32037;50.820;6.494;2023-02-28T12:20:31;5.30;99.90
46309;DHT22;32037;50.820;6.494;2023-02-28T12:23:18;5.30;99.90
46309;DHT22;32037;50.820;6.494;2023-02-28T12:26:02;5.30;99.90
46309;DHT22;32037;50.820;6.494;2023-02-28T12:28:35;5.30;99.90
46309;DHT22;32037;50.820;6.494;2023-02-28T12:31:09;5.30;99.90
46309;DHT22;32037;50.820;6.494;2023-02-28T12:33:45;5.30;99.90
46309;DHT22;32037;50.820;6.494;2023-02-28T12:36:17;5.30;99.90
46309;DHT22;32037;50.820;6.494;2023-02-28T12:38:51;5.30;99.90
46309;DHT22;32037;50.820;6.494;2023-02-28T12:41:28;5.30;99.90
46309;DHT22;32037;50.820;6.494;2023-02-28T12:44:01;5.30;99.90
46309;DHT22;32037;50.820;6.494;2023-02-28T12:46:33;5.30;99.90
46309;DHT22;32037;50.820;6.494;2023-02-28T12:49:09;5.30;99.90
46309;DHT22;32037;50.820;6.494;2023-02-28T12:51:41;5.40;99.90
46309;DHT22;32037;50.820;6.494;2023-02-28T12:54:16;5.30;99.90
46309;DHT22;32037;50.820;6.494;2023-02-28T12:56:53;5.40;99.90
46309;DHT22;32037;50.820;6.494;2023-02-28T12:59:27;5.30;99.90
46309;DHT22;32037;50.820;6.494;2023-02-28T13:02:28;5.40;99.90
46309;DHT22;32037;50.820;6.494;2023-02-28T13:05:24;5.40;99.90
46309;DHT22;32037;50.820;6.494;2023-02-28T13:08:20;5.40;99.90
46309;DHT22;32037;50.820;6.494;2023-02-28T13:10:52;5.40;99.90
46309;DHT22;32037;50.820;6.494;2023-02-28T13:13:24;5.40;99.90
46309;DHT22;32037;50.820;6.494;2023-02-28T13:16:02;5.40;99.90
46309;DHT22;32037;50.820;6.494;2023-02-28T13:18:34;5.40;99.90
46309;DHT22;32037;50.820;6.494;2023-02-28T13:21:07;5.40;99.90
46309;DHT22;32037;50.820;6.494;2023-02-28T13:29:31;5.40;99.90
46309;DHT22;32037;50.820;6.494;2023-02-28T13:32:32;5.40;99.90
46309;DHT22;32037;50.820;6.494;2023-02-28T13:35:37;5.40;99.90
46309;DHT22;32037;50.820;6.494;2023-02-28T13:38:36;5.40;99.90
46309;DHT22;32037;50.820;6.494;2023-02-28T13:44:26;5.40;99.90
46309;DHT22;32037;50.820;6.494;2023-02-28T13:47:18;5.40;99.90
46309;DHT22;32037;50.820;6.494;2023-02-28T13:49:49;5.40;99.90
46309;DHT22;32037;50.820;6.494;2023-02-28T13:52:21;5.40;99.90
46309;DHT22;32037;50.820;6.494;2023-02-28T13:55:10;5.40;99.90
46309;DHT22;32037;50.820;6.494;2023-02-28T13:57:57;5.40;99.90
46309;DHT22;32037;50.820;6.494;2023-02-28T14:00:35;5.40;99.90
46309;DHT22;32037;50.820;6.494;2023-02-28T14:03:23;5.40;99.90
46309;DHT22;32037;50.820;6.494;2023-02-28T14:06:14;5.40;99.90
46309;DHT22;32037;50.820;6.494;2023-02-28T14:08:50;5.40;99.90
46309;DHT22;32037;50.820;6.494;2023-02-28T14:11:30;5.40;99.90
46309;DHT22;32037;50.820;6.494;2023-02-28T14:14:00;5.40;99.90
46309;DHT22;32037;50.820;6.494;2023-02-28T14:16:36;5.40;99.90
46309;DHT22;32037;50.820;6.494;2023-02-28T14:19:11;5.40;99.90
46309;DHT22;32037;50.820;6.494;2023-02-28T14:21:52;5.40;99.90
46309;DHT22;32037;50.820;6.494;2023-02-28T14:24:46;5.50;99.90
46309;DHT22;32037;50.820;6.494;2023-02-28T14:27:41;5.50;99.90
46309;DHT22;32037;50.820;6.494;2023-02-28T14:30:43;5.40;99.90
46309;DHT22;32037;50.820;6.494;2023-02-28T14:33:23;5.50;99.90
46309;DHT22;32037;50.820;6.494;2023-02-28T14:36:16;5.50;99.90
46309;DHT22;32037;50.820;6.494;2023-02-28T14:38:47;5.50;99.90
46309;DHT22;32037;50.820;6.494;2023-02-28T14:41:28;5.50;99.90
46309;DHT22;32037;50.820;6.494;2023-02-28T14:44:00;5.50;99.90
46309;DHT22;32037;50.820;6.494;2023-02-28T14:46:35;5.50;99.90
46309;DHT22;32037;50.820;6.494;2023-02-28T14:49:04;5.50;99.90
46309;DHT22;32037;50.820;6.494;2023-02-28T14:51:35;5.50;99.90
46309;DHT22;32037;50.820;6.494;2023-02-28T14:54:04;5.50;99.90
46309;DHT22;32037;50.820;6.494;2023-02-28T14:56:35;5.50;99.90
46309;DHT22;32037;50.820;6.494;2023-02-28T14:59:23;5.50;99.90
46309;DHT22;32037;50.820;6.494;2023-02-28T15:02:14;5.50;99.90
46309;DHT22;32037;50.820;6.494;2023-02-28T15:04:43;5.50;99.90
46309;DHT22;32037;50.820;6.494;2023-02-28T15:07:20;5.50;99.90
46309;DHT22;32037;50.820;6.494;2023-02-28T15:10:10;5.50;99.90
46309;DHT22;32037;50.820;6.494;2023-02-28T15:12:40;5.50;99.90
46309;DHT22;32037;50.820;6.494;2023-02-28T15:15:16;5.50;99.90
46309;DHT22;32037;50.820;6.494;2023-02-28T15:17:50;5.50;99.90
46309;DHT22;32037;50.820;6.494;2023-02-28T15:20:19;5.50;99.90
46309;DHT22;32037;50.820;6.494;2023-02-28T15:22:50;5.50;99.90
46309;DHT22;32037;50.820;6.494;2023-02-28T15:25:21;5.50;99.90
46309;DHT22;32037;50.820;6.494;2023-02-28T15:27:52;5.50;99.90
46309;DHT22;32037;50.820;6.494;2023-02-28T15:30:25;5.50;99.90
46309;DHT22;32037;50.820;6.494;2023-02-28T15:33:18;5.50;99.90
46309;DHT22;32037;50.820;6.494;2023-02-28T15:35:47;5.50;99.90
46309;DHT22;32037;50.820;6.494;2023-02-28T15:38:18;5.50;99.90
46309;DHT22;32037;50.820;6.494;2023-02-28T15:40:51;5.50;99.90
46309;DHT22;32037;50.820;6.494;2023-02-28T15:43:26;5.50;99.90
46309;DHT22;32037;50.820;6.494;2023-02-28T15:46:02;5.60;99.90
46309;DHT22;32037;50.820;6.494;2023-02-28T15:48:33;5.60;99.90
46309;DHT22;32037;50.820;6.494;2023-02-28T15:51:07;5.50;99.90
46309;DHT22;32037;50.820;6.494;2023-02-28T15:53:37;5.60;99.90
46309;DHT22;32037;50.820;6.494;2023-02-28T15:56:18;5.60;99.90
46309;DHT22;32037;50.820;6.494;2023-02-28T15:58:48;5.60;99.90
46309;DHT22;32037;50.820;6.494;2023-02-28T16:01:20;5.60;99.90
46309;DHT22;32037;50.820;6.494;2023-02-28T16:03:53;5.60;99.90
46309;DHT22;32037;50.820;6.494;2023-02-28T16:06:38;5.60;99.90
46309;DHT22;32037;50.820;6.494;2023-02-28T16:09:11;5.60;99.90
46309;DHT22;32037;50.820;6.494;2023-02-28T16:11:43;5.60;99.90
46309;DHT22;32037;50.820;6.494;2023-02-28T16:14:15;5.60;99.90
46309;DHT22;32037;50.820;6.494;2023-02-28T16:16:48;5.60;99.90
46309;DHT22;32037;50.820;6.494;2023-02-28T16:19:17;5.60;99.90
46309;DHT22;32037;50.820;6.494;2023-02-28T16:21:46;5.60;99.90
46309;DHT22;32037;50.820;6.494;2023-02-28T16:24:15;5.60;99.90
46309;DHT22;32037;50.820;6.494;2023-02-28T16:26:46;5.60;99.90
46309;DHT22;32037;50.820;6.494;2023-02-28T16:29:21;5.60;99.90
46309;DHT22;32037;50.820;6.494;2023-02-28T16:31:56;5.60;99.90
46309;DHT22;32037;50.820;6.494;2023-02-28T16:34:25;5.60;99.90
46309;DHT22;32037;50.820;6.494;2023-02-28T16:36:54;5.60;99.90